Terminal Aerodrome Forecast
Issued by NWS Northern Indiana

Home | Current Version | Previous Version | Text Only | Print | Product List | Glossary Off
Versions: 1 2 3 4 5 6 7 8 9 10 11 12 13 14 15

000
FTUS43 KIWX 281100
TAFFWA
TAF
KFWA 281120Z 2812/2912 22014KT 6SM -SHRA VCTS BKN040CB OVC100
      TEMPO 2812/2814 4SM SHRA BKN030
     FM281600 26016G23KT P6SM SCT040
     FM290000 26008KT P6SM SCT250=

USA.gov is the U.S. government's official web portal to all federal, state and local government web resources and services.